Time;durP1;ratioP1;P1;durP2;ratioP2;P2;SDS_P1;SDS_P2;PMS_P1;PMS_P2;Temp;Humidity;BMP_temperature;BMP_pressure;BME280_temperature;BME280_humidity;BME280_pressure;Samples;Min_cycle;Max_cycle;Signal;HPM_P1;HPM_P2
2021/12/27 00:01:59;;;;;;;46.03;19.58;;;;;;;2.66;100.00;101011.19;4996351;28;20041;-68
2021/12/27 00:04:44;;;;;;;54.78;21.08;;;;;;;2.31;100.00;100992.41;4970204;28;20058;-68
2021/12/27 00:07:30;;;;;;;74.03;19.25;;;;;;;2.29;100.00;100991.47;4996467;28;20030;-68
2021/12/27 00:10:18;;;;;;;59.40;20.38;;;;;;;2.18;100.00;100995.59;4997167;28;20102;-68
2021/12/27 00:13:06;;;;;;;64.07;22.48;;;;;;;2.17;100.00;101003.31;4982844;28;20180;-70
2021/12/27 00:15:52;;;;;;;65.88;23.00;;;;;;;2.36;100.00;100995.94;4996670;28;20088;-69
2021/12/27 00:18:38;;;;;;;59.92;21.55;;;;;;;2.38;100.00;101006.31;4983151;28;20383;-69
2021/12/27 00:21:24;;;;;;;55.75;20.25;;;;;;;2.07;100.00;101003.94;4983746;28;20061;-68
2021/12/27 00:24:09;;;;;;;72.80;20.90;;;;;;;2.08;100.00;101008.25;4982751;28;20037;-69
2021/12/27 00:26:55;;;;;;;91.10;24.48;;;;;;;2.10;100.00;101016.94;4996354;28;20418;-69
2021/12/27 00:29:41;;;;;;;51.53;19.77;;;;;;;2.22;100.00;101022.34;4996747;28;20030;-69
2021/12/27 00:32:27;;;;;;;39.15;18.10;;;;;;;2.61;100.00;101012.81;4996790;28;20109;-69
2021/12/27 00:35:15;;;;;;;47.50;20.02;;;;;;;2.31;100.00;101010.50;4995529;28;20444;-69
2021/12/27 00:38:01;;;;;;;47.47;18.48;;;;;;;2.32;100.00;101007.06;4996911;28;20057;-68
2021/12/27 00:40:47;;;;;;;50.88;20.40;;;;;;;2.18;100.00;101010.22;4996592;28;20065;-69
2021/12/27 00:43:32;;;;;;;62.90;21.35;;;;;;;2.09;100.00;100995.38;4996469;28;20022;-69
2021/12/27 00:46:18;;;;;;;88.55;24.88;;;;;;;2.01;100.00;100991.75;4982723;28;20050;-69
2021/12/27 00:49:04;;;;;;;78.63;28.88;;;;;;;2.43;100.00;100999.50;4995355;28;20034;-69
2021/12/27 00:51:50;;;;;;;67.07;27.40;;;;;;;2.28;100.00;100992.34;4996479;28;20471;-68
2021/12/27 00:54:36;;;;;;;89.70;40.42;;;;;;;2.32;100.00;100991.56;4996291;28;20462;-68
2021/12/27 00:57:21;;;;;;;68.75;24.38;;;;;;;2.57;100.00;100991.19;4995598;28;20023;-68
2021/12/27 01:00:14;;;;;;;74.75;29.40;;;;;;;2.36;100.00;101001.13;4995272;28;20118;-68
2021/12/27 01:02:59;;;;;;;69.25;22.92;;;;;;;2.36;100.00;101005.41;4995892;28;20049;-69
2021/12/27 01:05:45;;;;;;;56.08;18.98;;;;;;;2.42;100.00;101000.38;4997092;28;20033;-68
2021/12/27 01:08:32;;;;;;;54.10;19.75;;;;;;;2.36;100.00;100995.94;4995633;28;20037;-67
2021/12/27 01:14:37;;;;;;;47.60;17.15;;;;;;;2.51;100.00;100993.66;4995681;28;20113;-68
2021/12/27 01:17:23;;;;;;;67.07;19.40;;;;;;;2.43;100.00;101000.41;4995982;28;20173;-68
2021/12/27 01:20:11;;;;;;;69.75;19.42;;;;;;;2.62;100.00;100999.88;4996044;28;20041;-68
2021/12/27 01:22:57;;;;;;;45.38;18.13;;;;;;;2.45;100.00;101003.88;4995806;28;20030;-68
2021/12/27 01:25:43;;;;;;;45.33;18.80;;;;;;;2.56;100.00;101007.53;4995583;28;20064;-68
2021/12/27 01:28:29;;;;;;;88.65;37.17;;;;;;;2.41;100.00;101029.66;4996275;28;20041;-68
2021/12/27 01:31:14;;;;;;;54.70;19.50;;;;;;;2.02;100.00;101019.38;4995657;28;20040;-68
2021/12/27 01:34:00;;;;;;;44.10;18.60;;;;;;;2.28;100.00;101012.13;4980264;28;20440;-68
2021/12/27 01:36:46;;;;;;;44.90;19.35;;;;;;;2.80;100.00;101000.25;4994643;28;20026;-69
2021/12/27 01:39:32;;;;;;;56.88;19.15;;;;;;;2.26;100.00;100988.88;4996041;28;20099;-70
2021/12/27 01:42:18;;;;;;;66.38;20.15;;;;;;;1.94;100.00;100994.19;4995548;28;20026;-69
2021/12/27 01:45:04;;;;;;;77.93;22.15;;;;;;;2.38;100.00;101007.19;4981520;28;20030;-68
2021/12/27 01:47:50;;;;;;;73.38;19.42;;;;;;;2.22;100.00;101010.31;4994908;28;20116;-68
2021/12/27 01:50:38;;;;;;;53.28;24.65;;;;;;;2.38;100.00;100999.44;4996187;28;20041;-68
2021/12/27 01:53:26;;;;;;;46.25;17.90;;;;;;;2.29;100.00;100988.91;4995287;28;20053;-69
2021/12/27 01:56:14;;;;;;;50.95;16.23;;;;;;;2.10;100.00;100994.56;4995372;28;20058;-68
2021/12/27 01:59:00;;;;;;;56.55;18.08;;;;;;;2.15;100.00;100999.81;4994849;28;20097;-68
2021/12/27 02:01:45;;;;;;;40.22;15.50;;;;;;;2.16;100.00;101017.94;4994099;28;20029;-69
2021/12/27 02:04:31;;;;;;;65.43;16.73;;;;;;;2.20;100.00;101018.84;4995563;28;20176;-67
2021/12/27 02:07:17;;;;;;;45.10;16.77;;;;;;;2.24;100.00;101016.38;4981443;28;20030;-69
2021/12/27 02:10:03;;;;;;;52.05;16.42;;;;;;;2.16;100.00;101028.25;4999418;28;20037;-68
2021/12/27 02:12:50;;;;;;;46.65;17.02;;;;;;;2.55;100.00;101047.19;4999236;28;20030;-68
2021/12/27 02:15:36;;;;;;;39.10;16.63;;;;;;;2.37;100.00;101049.38;4985783;28;20410;-68
2021/12/27 02:18:22;;;;;;;45.58;15.55;;;;;;;2.60;100.00;101034.31;4984554;28;20026;-68
2021/12/27 02:21:08;;;;;;;40.38;17.83;;;;;;;2.63;100.00;101031.81;4999093;28;20034;-67
2021/12/27 02:23:54;;;;;;;32.50;15.32;;;;;;;2.20;100.00;101032.66;4998619;28;20092;-68
2021/12/27 02:26:40;;;;;;;37.97;15.73;;;;;;;2.06;100.00;101023.75;4998947;28;20026;-69
2021/12/27 02:29:26;;;;;;;56.15;17.13;;;;;;;2.27;100.00;101029.38;4999014;28;20049;-68
2021/12/27 02:32:12;;;;;;;74.20;17.67;;;;;;;2.07;100.00;101022.03;4999402;28;20033;-68
2021/12/27 02:34:57;;;;;;;40.75;16.05;;;;;;;2.39;100.00;101018.41;4999499;28;20121;-67
2021/12/27 02:37:43;;;;;;;58.70;15.55;;;;;;;2.03;100.00;101012.47;4998894;28;20054;-69
2021/12/27 02:40:32;;;;;;;47.63;14.85;;;;;;;1.96;100.00;101024.38;4999329;28;20030;-69
2021/12/27 02:43:23;;;;;;;46.38;14.30;;;;;;;2.01;100.00;101027.94;4998112;28;20030;-68
2021/12/27 02:46:13;;;;;;;42.85;15.60;;;;;;;2.39;100.00;101020.97;4999012;28;20066;-69
2021/12/27 02:48:59;;;;;;;40.35;14.85;;;;;;;2.20;100.00;101013.69;4998717;28;20038;-68
2021/12/27 02:51:45;;;;;;;33.72;14.10;;;;;;;2.44;100.00;101027.09;4997574;28;20041;-68
2021/12/27 02:54:31;;;;;;;42.03;14.65;;;;;;;2.20;100.00;101009.41;4998606;28;20022;-68
2021/12/27 02:57:16;;;;;;;42.25;14.40;;;;;;;1.95;100.00;101007.16;4998705;28;20363;-69
2021/12/27 03:00:03;;;;;;;39.08;14.05;;;;;;;1.93;100.00;101013.13;4998587;28;20033;-69
2021/12/27 03:02:51;;;;;;;35.50;13.93;;;;;;;2.28;100.00;101020.75;4998421;28;20030;-68
2021/12/27 03:05:38;;;;;;;38.88;13.70;;;;;;;2.25;100.00;101012.09;4997734;28;20034;-68
2021/12/27 03:08:26;;;;;;;42.50;14.35;;;;;;;2.25;100.00;101015.53;4998238;28;20026;-69
2021/12/27 03:11:12;;;;;;;32.05;13.25;;;;;;;2.27;100.00;101020.72;4997727;28;20037;-69
2021/12/27 03:13:58;;;;;;;44.75;14.85;;;;;;;2.12;100.00;101018.69;4998156;28;20038;-68
2021/12/27 03:16:44;;;;;;;28.02;12.75;;;;;;;2.01;100.00;101025.34;4998308;28;20030;-69
2021/12/27 03:19:30;;;;;;;37.45;13.57;;;;;;;2.27;100.00;101039.72;4997085;28;20030;-68
2021/12/27 03:22:16;;;;;;;27.40;13.43;;;;;;;2.53;100.00;101043.69;4997717;28;20065;-69
2021/12/27 03:25:02;;;;;;;32.65;13.65;;;;;;;2.20;100.00;101031.78;4997933;28;20530;-69
2021/12/27 03:27:48;;;;;;;37.08;14.45;;;;;;;2.02;100.00;101021.06;4983291;28;20045;-69
2021/12/27 03:30:35;;;;;;;35.47;13.45;;;;;;;2.31;100.00;101022.53;4997389;28;20026;-69
2021/12/27 03:33:22;;;;;;;30.52;13.68;;;;;;;2.18;100.00;101015.38;4997913;28;20042;-68
2021/12/27 03:36:09;;;;;;;34.10;14.68;;;;;;;2.70;100.00;101012.97;4997816;28;20037;-68
2021/12/27 03:38:55;;;;;;;47.40;16.95;;;;;;;2.51;100.00;101008.28;4997423;28;20512;-69
2021/12/27 03:41:40;;;;;;;33.17;15.68;;;;;;;2.58;100.00;101007.56;4997694;28;20085;-69
2021/12/27 03:44:26;;;;;;;36.75;16.20;;;;;;;2.37;100.00;101005.44;4997598;28;20047;-69
2021/12/27 03:47:12;;;;;;;34.90;15.25;;;;;;;2.37;100.00;101002.84;4968089;28;20050;-69
2021/12/27 03:49:58;;;;;;;35.15;15.50;;;;;;;2.30;100.00;101003.59;4996963;28;20022;-69
2021/12/27 03:52:44;;;;;;;33.88;15.38;;;;;;;2.50;100.00;101003.97;4996972;28;20022;-69
2021/12/27 03:55:30;;;;;;;40.40;15.90;;;;;;;2.23;100.00;101006.88;4997128;28;20038;-69
2021/12/27 03:58:32;;;;;;;37.80;14.63;;;;;;;2.29;100.00;101011.31;4997868;28;20026;-69
2021/12/27 04:01:21;;;;;;;26.80;14.20;;;;;;;2.36;100.00;101011.44;4982866;28;20517;-68
2021/12/27 04:04:06;;;;;;;30.90;13.70;;;;;;;2.15;100.00;101012.72;4997042;28;20034;-68
2021/12/27 04:06:52;;;;;;;37.75;15.20;;;;;;;2.18;100.00;101016.25;4996688;28;20022;-69
2021/12/27 04:09:38;;;;;;;28.23;13.43;;;;;;;2.20;100.00;101014.56;4996243;28;20031;-68
2021/12/27 04:12:24;;;;;;;31.60;13.95;;;;;;;2.41;100.00;101014.13;4997123;28;20035;-69
2021/12/27 04:15:10;;;;;;;29.77;13.85;;;;;;;2.54;100.00;101005.78;4997274;28;20034;-69
2021/12/27 04:17:55;;;;;;;28.48;12.45;;;;;;;2.29;100.00;101001.81;4995953;28;20026;-68
2021/12/27 04:20:41;;;;;;;31.55;11.93;;;;;;;2.44;100.00;101003.84;4997371;28;20027;-68
2021/12/27 04:23:27;;;;;;;24.90;11.75;;;;;;;2.50;100.00;100997.09;4996911;28;20026;-70
2021/12/27 04:26:13;;;;;;;30.17;13.18;;;;;;;2.75;100.00;101009.63;4997948;28;20080;-68
2021/12/27 04:28:58;;;;;;;29.75;12.63;;;;;;;2.43;100.00;101012.44;4996955;28;20030;-68
2021/12/27 04:31:44;;;;;;;30.52;11.60;;;;;;;2.08;100.00;101009.13;4995630;28;20027;-68
2021/12/27 04:34:30;;;;;;;30.02;13.27;;;;;;;2.38;100.00;101034.75;4996631;28;20061;-67
2021/12/27 04:37:16;;;;;;;26.30;12.82;;;;;;;2.62;100.00;101030.91;4996497;28;20525;-68
2021/12/27 04:40:06;;;;;;;32.72;12.35;;;;;;;2.35;100.00;101035.56;4997015;28;20034;-69
2021/12/27 04:42:56;;;;;;;29.13;12.25;;;;;;;2.19;100.00;101042.97;4995966;28;20040;-69
2021/12/27 04:45:42;;;;;;;31.60;12.20;;;;;;;2.07;100.00;101035.84;4995196;28;20448;-68
2021/12/27 04:48:28;;;;;;;25.25;12.60;;;;;;;2.54;100.00;101031.63;4996048;28;20031;-68
2021/12/27 04:51:14;;;;;;;23.00;12.55;;;;;;;2.55;100.00;101020.44;4995772;28;20108;-67
2021/12/27 04:53:59;;;;;;;19.95;11.13;;;;;;;2.26;100.00;101021.56;4995894;28;20042;-68
2021/12/27 04:56:47;;;;;;;24.35;11.75;;;;;;;2.59;100.00;101007.59;4996367;28;20371;-68
2021/12/27 04:59:33;;;;;;;23.02;11.65;;;;;;;2.20;100.00;101016.25;4995628;28;20057;-69
2021/12/27 05:02:19;;;;;;;25.05;12.20;;;;;;;2.42;100.00;101031.38;4995917;28;20054;-69
2021/12/27 05:05:05;;;;;;;22.08;10.75;;;;;;;2.07;100.00;101022.03;4996239;28;20096;-70
2021/12/27 05:07:51;;;;;;;20.15;10.35;;;;;;;2.08;100.00;101028.94;4980626;28;20034;-69
2021/12/27 05:10:37;;;;;;;23.48;11.48;;;;;;;2.23;100.00;101024.97;4996602;28;20362;-69
2021/12/27 05:13:23;;;;;;;20.52;10.85;;;;;;;2.13;100.00;101023.03;4996121;28;20046;-68
2021/12/27 05:16:09;;;;;;;22.10;10.80;;;;;;;2.50;100.00;101028.13;4996055;28;20037;-69
2021/12/27 05:18:54;;;;;;;21.63;10.40;;;;;;;2.58;100.00;101038.59;4995953;28;20116;-68
2021/12/27 05:21:40;;;;;;;21.92;11.32;;;;;;;2.25;100.00;101037.94;4994871;28;20452;-68
2021/12/27 05:24:28;;;;;;;23.95;10.35;;;;;;;2.13;100.00;101037.69;4994972;28;20415;-70
2021/12/27 05:27:13;;;;;;;20.88;10.43;;;;;;;2.06;100.00;101048.72;4981461;28;20026;-68
2021/12/27 05:29:59;;;;;;;20.83;10.68;;;;;;;2.25;100.00;101056.88;4995814;28;20022;-69
2021/12/27 05:32:45;;;;;;;21.38;11.13;;;;;;;2.24;100.00;101062.00;4982395;28;20034;-70
2021/12/27 05:35:31;;;;;;;27.55;12.10;;;;;;;2.27;100.00;101044.00;4995302;28;20053;-68
2021/12/27 05:38:17;;;;;;;20.40;10.90;;;;;;;2.11;100.00;101042.81;4995868;28;20034;-68
2021/12/27 05:41:03;;;;;;;19.90;10.02;;;;;;;1.90;100.00;101047.50;4994438;28;20037;-68
2021/12/27 05:43:48;;;;;;;22.33;11.20;;;;;;;2.10;100.00;101047.94;4994527;28;20463;-69
2021/12/27 05:46:34;;;;;;;21.10;10.48;;;;;;;2.01;100.00;101053.78;4995412;28;20046;-68
2021/12/27 05:49:22;;;;;;;21.85;11.02;;;;;;;2.33;100.00;101057.91;4995541;28;20403;-69
2021/12/27 05:52:07;;;;;;;19.35;10.70;;;;;;;2.33;100.00;101052.75;4994971;28;20026;-70
2021/12/27 05:54:53;;;;;;;22.02;12.15;;;;;;;2.50;100.00;101053.97;4995431;28;20030;-68
2021/12/27 05:57:39;;;;;;;18.42;10.73;;;;;;;2.47;100.00;101045.28;4995934;28;20109;-69
2021/12/27 06:00:25;;;;;;;18.70;10.25;;;;;;;2.61;100.00;101049.88;4994866;28;20046;-69
2021/12/27 06:03:11;;;;;;;18.65;10.48;;;;;;;2.51;100.00;101057.41;4995739;28;20114;-70
2021/12/27 06:05:57;;;;;;;18.98;11.20;;;;;;;3.00;100.00;101067.88;4995529;28;20050;-69
2021/12/27 06:08:42;;;;;;;18.52;10.73;;;;;;;2.81;100.00;101069.25;4996152;28;20026;-69
2021/12/27 06:11:28;;;;;;;19.75;10.85;;;;;;;2.54;100.00;101065.25;4995612;28;20105;-69
2021/12/27 06:14:14;;;;;;;21.33;11.05;;;;;;;2.50;100.00;101053.97;4995707;28;20109;-69
2021/12/27 06:17:00;;;;;;;20.05;10.45;;;;;;;2.76;100.00;101050.19;4994618;28;20415;-68
2021/12/27 06:19:46;;;;;;;19.63;11.35;;;;;;;2.78;100.00;101053.66;4995128;28;20026;-69
2021/12/27 06:22:33;;;;;;;18.33;10.30;;;;;;;2.80;100.00;101045.91;4995201;28;20105;-71
2021/12/27 06:25:19;;;;;;;22.95;12.73;;;;;;;2.56;100.00;101035.09;4994400;28;20026;-68
2021/12/27 06:28:05;;;;;;;22.98;13.35;;;;;;;2.32;100.00;101039.78;4994262;28;20105;-68
2021/12/27 06:30:52;;;;;;;32.17;13.70;;;;;;;2.34;100.00;101044.19;4995226;28;20045;-69
2021/12/27 06:33:37;;;;;;;38.03;15.98;;;;;;;2.54;100.00;101060.06;4995251;28;20038;-68
2021/12/27 06:36:24;;;;;;;48.65;17.23;;;;;;;2.73;100.00;101060.47;4995030;28;20416;-70
2021/12/27 06:39:10;;;;;;;36.67;16.75;;;;;;;2.45;100.00;101053.00;4981772;28;20141;-69
2021/12/27 06:41:56;;;;;;;40.20;15.27;;;;;;;2.49;100.00;101049.63;4994483;28;20399;-68
2021/12/27 06:44:42;;;;;;;27.10;13.35;;;;;;;2.45;100.00;101037.47;4993989;28;20359;-68
2021/12/27 06:47:28;;;;;;;27.08;14.50;;;;;;;2.50;100.00;101040.16;4994052;28;20051;-68
2021/12/27 06:50:15;;;;;;;23.98;13.80;;;;;;;2.48;100.00;101037.56;4980432;28;20495;-68
2021/12/27 06:53:01;;;;;;;27.58;14.45;;;;;;;2.09;100.00;101044.47;4980868;28;20114;-70
2021/12/27 06:55:47;;;;;;;31.45;14.50;;;;;;;2.13;100.00;101035.94;4996859;28;20022;-69
2021/12/27 06:58:33;;;;;;;24.50;12.32;;;;;;;2.23;100.00;101037.91;4998453;28;20030;-69
2021/12/27 07:01:19;;;;;;;30.77;15.05;;;;;;;2.17;100.00;101024.84;4998261;28;20026;-70
2021/12/27 07:04:05;;;;;;;29.20;13.52;;;;;;;2.00;100.00;101026.19;4998401;28;20391;-68
2021/12/27 07:06:50;;;;;;;39.40;15.05;;;;;;;2.07;100.00;101041.00;4997580;28;20478;-70
2021/12/27 07:09:36;;;;;;;32.42;13.90;;;;;;;2.27;100.00;101037.13;4998601;28;20455;-69
2021/12/27 07:12:23;;;;;;;40.80;15.40;;;;;;;2.51;100.00;101031.56;4997698;28;20026;-68
2021/12/27 07:15:09;;;;;;;45.00;17.50;;;;;;;2.49;100.00;101043.59;4983151;28;20065;-68
2021/12/27 07:17:55;;;;;;;31.30;14.88;;;;;;;2.48;100.00;101037.56;4997156;28;20040;-70
2021/12/27 07:20:40;;;;;;;31.77;15.25;;;;;;;2.72;100.00;101032.84;4996682;28;20088;-70
2021/12/27 07:23:26;;;;;;;35.63;16.23;;;;;;;2.33;100.00;101020.88;4998062;28;20113;-69
2021/12/27 07:26:12;;;;;;;37.40;16.58;;;;;;;2.23;100.00;101019.81;4998206;28;20037;-69
2021/12/27 07:28:58;;;;;;;38.90;16.63;;;;;;;2.58;100.00;101007.56;4998034;28;20045;-70
2021/12/27 07:31:43;;;;;;;43.83;18.00;;;;;;;2.13;100.00;100997.19;4997771;28;20033;-69
2021/12/27 07:34:29;;;;;;;39.92;18.83;;;;;;;2.28;100.00;101012.13;4998074;28;20376;-69
2021/12/27 07:37:16;;;;;;;37.97;17.73;;;;;;;2.59;100.00;101010.19;4997549;28;20037;-69
2021/12/27 07:40:03;;;;;;;29.58;15.55;;;;;;;2.13;100.00;101012.69;4983713;28;20027;-69
2021/12/27 07:42:49;;;;;;;40.15;20.00;;;;;;;2.49;100.00;101013.44;4997635;28;20026;-69
2021/12/27 07:45:35;;;;;;;52.75;22.80;;;;;;;2.58;100.00;101018.78;4996392;28;20031;-69
2021/12/27 07:48:21;;;;;;;45.40;20.98;;;;;;;2.72;100.00;101013.88;4983281;28;20399;-69
2021/12/27 07:51:07;;;;;;;39.10;20.15;;;;;;;2.61;100.00;101028.34;4998235;28;20022;-70
2021/12/27 07:53:52;;;;;;;33.33;16.88;;;;;;;2.19;100.00;101027.44;4997470;28;20022;-69
2021/12/27 07:56:38;;;;;;;36.28;17.15;;;;;;;2.17;100.00;101034.31;4997565;28;20340;-70
2021/12/27 07:59:25;;;;;;;35.13;17.70;;;;;;;2.36;100.00;101032.13;4996874;28;20479;-68
2021/12/27 08:02:11;;;;;;;30.65;17.10;;;;;;;2.21;100.00;101024.06;4997567;28;20029;-68
2021/12/27 08:04:56;;;;;;;31.15;17.73;;;;;;;2.02;100.00;101014.19;4983346;28;20030;-69
2021/12/27 08:07:42;;;;;;;35.60;18.30;;;;;;;2.85;100.00;101008.94;4997170;28;20058;-68
2021/12/27 08:10:29;;;;;;;31.10;16.88;;;;;;;2.45;100.00;100997.84;4996566;28;20033;-69
2021/12/27 08:13:14;;;;;;;31.60;17.23;;;;;;;2.66;100.00;100999.09;4996463;28;20022;-69
2021/12/27 08:16:00;;;;;;;42.50;19.35;;;;;;;2.39;100.00;101021.84;4997104;28;20034;-69
2021/12/27 08:18:46;;;;;;;33.58;18.65;;;;;;;3.01;100.00;101044.59;4996808;28;20055;-69
2021/12/27 08:21:33;;;;;;;27.80;15.43;;;;;;;2.66;100.00;101040.47;4995825;28;20447;-69
2021/12/27 08:24:19;;;;;;;34.53;17.90;;;;;;;3.02;100.00;101032.53;4996233;28;20034;-71
2021/12/27 08:27:05;;;;;;;32.72;16.83;;;;;;;3.30;100.00;101033.03;4997036;28;20022;-69
2021/12/27 08:29:51;;;;;;;36.90;19.02;;;;;;;2.77;100.00;101030.38;4981740;28;20505;-69
2021/12/27 08:32:40;;;;;;;68.75;24.42;;;;;;;2.55;100.00;101013.56;4996635;28;20034;-68
2021/12/27 08:35:26;;;;;;;59.35;24.08;;;;;;;2.63;100.00;101016.28;4996225;28;20062;-69
2021/12/27 08:38:13;;;;;;;34.67;16.33;;;;;;;2.66;100.00;101006.84;4996313;28;20034;-70
2021/12/27 08:40:58;;;;;;;39.38;17.25;;;;;;;2.74;100.00;101002.69;4996545;28;20105;-68
2021/12/27 08:43:45;;;;;;;35.95;17.90;;;;;;;2.94;100.00;100988.41;4995307;28;20018;-68
2021/12/27 08:46:34;;;;;;;38.05;18.10;;;;;;;2.87;100.00;100981.41;4982252;28;20134;-69
2021/12/27 08:49:20;;;;;;;39.47;19.42;;;;;;;2.64;100.00;100977.53;4995811;28;20114;-69
2021/12/27 08:52:06;;;;;;;39.05;18.30;;;;;;;2.67;100.00;100989.63;4983085;28;20026;-68
2021/12/27 08:54:51;;;;;;;30.95;15.88;;;;;;;2.61;100.00;100977.47;4995712;28;20026;-69
2021/12/27 08:57:38;;;;;;;28.63;16.23;;;;;;;2.70;100.00;100984.53;4996293;28;20451;-68
2021/12/27 09:00:24;;;;;;;36.78;17.60;;;;;;;2.48;100.00;100978.06;4995950;28;20057;-70
2021/12/27 09:03:13;;;;;;;38.28;17.83;;;;;;;2.55;100.00;100977.38;4995625;28;20041;-69
2021/12/27 09:05:58;;;;;;;38.10;16.70;;;;;;;2.61;100.00;100966.25;4995956;28;20117;-70
2021/12/27 09:08:44;;;;;;;37.38;17.63;;;;;;;2.69;100.00;100955.19;4996598;28;20400;-69
2021/12/27 09:11:30;;;;;;;44.72;20.33;;;;;;;2.40;100.00;100951.22;4982795;28;20018;-69
2021/12/27 09:14:16;;;;;;;45.70;21.77;;;;;;;2.64;100.00;100936.13;4995708;28;20030;-71
2021/12/27 09:17:02;;;;;;;35.50;19.27;;;;;;;2.73;100.00;100922.50;4982185;28;20026;-69
2021/12/27 09:19:49;;;;;;;51.90;22.90;;;;;;;2.69;100.00;100923.31;4980410;28;20041;-69
2021/12/27 09:22:36;;;;;;;50.70;21.35;;;;;;;2.86;100.00;100894.25;4981212;28;20053;-69
2021/12/27 09:25:22;;;;;;;38.55;18.77;;;;;;;2.50;100.00;100898.84;4980865;28;20026;-69
2021/12/27 09:28:08;;;;;;;34.05;18.63;;;;;;;2.57;100.00;100879.97;4996073;28;20120;-68
2021/12/27 09:30:54;;;;;;;37.15;17.08;;;;;;;2.69;100.00;100892.25;4982111;28;20022;-70
2021/12/27 09:33:40;;;;;;;36.28;18.25;;;;;;;2.90;100.00;100903.81;4996146;28;20036;-69
2021/12/27 09:36:26;;;;;;;44.50;20.35;;;;;;;3.12;100.00;100894.66;4981394;28;20034;-70
2021/12/27 09:39:13;;;;;;;51.85;21.98;;;;;;;3.05;100.00;100905.78;4996230;28;20371;-69
2021/12/27 09:41:59;;;;;;;43.47;20.70;;;;;;;3.19;100.00;100905.16;4995207;28;20026;-68
2021/12/27 09:44:45;;;;;;;58.58;23.20;;;;;;;2.75;100.00;100944.97;4995442;28;20357;-69
2021/12/27 09:47:32;;;;;;;71.95;23.13;;;;;;;2.93;100.00;100942.69;4995274;28;20054;-69
2021/12/27 09:50:24;;;;;;;63.78;25.70;;;;;;;2.97;100.00;100913.41;4995969;28;20018;-68
2021/12/27 09:53:10;;;;;;;64.32;26.08;;;;;;;2.69;100.00;100916.38;4995748;28;20080;-70
2021/12/27 09:55:56;;;;;;;50.88;24.80;;;;;;;3.04;100.00;100915.25;4980670;28;20026;-68
2021/12/27 09:58:42;;;;;;;47.45;21.17;;;;;;;2.75;100.00;100924.28;4995753;28;20052;-69
2021/12/27 10:01:28;;;;;;;41.33;19.20;;;;;;;2.80;100.00;100938.16;4995368;28;20370;-69
2021/12/27 10:04:14;;;;;;;46.00;19.17;;;;;;;2.58;100.00;100919.66;4981982;28;20367;-69
2021/12/27 10:07:00;;;;;;;32.28;17.25;;;;;;;2.43;100.00;100901.28;4994721;28;20034;-69
2021/12/27 10:09:52;;;;;;;41.97;19.90;;;;;;;2.70;100.00;100900.03;4994832;28;20030;-69
2021/12/27 10:12:39;;;;;;;39.08;20.98;;;;;;;2.75;100.00;100898.41;4994659;28;20030;-69
2021/12/27 10:15:33;;;;;;;39.60;18.58;;;;;;;2.76;100.00;100887.22;4994969;28;20100;-69
2021/12/27 10:18:22;;;;;;;32.25;18.48;;;;;;;2.69;100.00;100869.84;4994745;28;20038;-69
2021/12/27 10:21:14;;;;;;;39.58;20.08;;;;;;;2.52;100.00;100862.63;4994762;28;20061;-69
2021/12/27 10:24:02;;;;;;;45.88;22.05;;;;;;;2.40;100.00;100863.31;4994517;28;20026;-68
2021/12/27 10:26:49;;;;;;;46.53;22.65;;;;;;;2.64;100.00;100871.47;4994570;28;20173;-69
2021/12/27 10:29:38;;;;;;;45.80;23.98;;;;;;;2.58;100.00;100873.94;4997872;28;20088;-69
2021/12/27 10:32:24;;;;;;;42.00;21.30;;;;;;;2.78;100.00;100862.22;4998662;28;20466;-69
2021/12/27 10:35:12;;;;;;;35.92;20.30;;;;;;;2.69;100.00;100843.97;4998859;28;20026;-69
2021/12/27 10:38:13;;;;;;;49.13;26.05;;;;;;;2.90;100.00;100841.72;4984695;28;20057;-68
2021/12/27 10:41:10;;;;;;;44.20;21.75;;;;;;;2.92;100.00;100834.84;4999052;28;20040;-68
2021/12/27 10:43:57;;;;;;;55.65;27.25;;;;;;;3.07;100.00;100831.63;4998514;28;20030;-68
2021/12/27 10:46:43;;;;;;;59.03;27.25;;;;;;;3.20;100.00;100847.34;4997986;28;20432;-68
2021/12/27 10:49:48;;;;;;;53.85;26.85;;;;;;;3.08;100.00;100856.66;4997880;28;20344;-67
2021/12/27 10:52:41;;;;;;;56.60;26.80;;;;;;;3.14;100.00;100859.34;4985104;28;20138;-69
2021/12/27 10:55:35;;;;;;;46.45;22.58;;;;;;;2.83;100.00;100870.06;4984151;28;20125;-69
2021/12/27 10:58:24;;;;;;;45.63;21.13;;;;;;;2.68;100.00;100875.88;4998538;28;20036;-69
2021/12/27 11:01:12;;;;;;;48.03;22.50;;;;;;;2.75;100.00;100879.41;4997758;28;20041;-70
2021/12/27 11:04:01;;;;;;;54.80;23.90;;;;;;;2.52;100.00;100883.31;4998296;28;20045;-69
2021/12/27 11:06:49;;;;;;;40.45;21.30;;;;;;;3.02;100.00;100879.88;4997564;28;20038;-71
2021/12/27 11:09:35;;;;;;;57.10;25.83;;;;;;;2.94;100.00;100884.03;4998917;28;20087;-68
2021/12/27 11:12:21;;;;;;;58.28;28.90;;;;;;;2.99;100.00;100879.81;4983602;28;20030;-72
2021/12/27 11:15:10;;;;;;;45.85;23.98;;;;;;;2.90;100.00;100871.91;4998484;28;20091;-69
2021/12/27 11:17:57;;;;;;;56.50;30.77;;;;;;;3.45;100.00;100862.38;4983996;28;20093;-68
2021/12/27 11:20:46;;;;;;;59.60;31.63;;;;;;;2.78;100.00;100857.03;4997093;28;20041;-70
2021/12/27 11:23:32;;;;;;;50.30;29.80;;;;;;;2.96;100.00;100875.47;4998092;28;20034;-68
2021/12/27 11:26:27;;;;;;;43.85;23.55;;;;;;;2.79;100.00;100873.44;4997695;28;20026;-69
2021/12/27 11:29:19;;;;;;;48.03;26.75;;;;;;;3.16;100.00;100868.84;4997813;28;20034;-69
2021/12/27 11:32:16;;;;;;;47.28;27.38;;;;;;;3.88;100.00;100872.41;4983441;28;20062;-68
2021/12/27 11:35:09;;;;;;;43.78;24.25;;;;;;;3.57;100.00;100883.25;4997811;28;20435;-69
2021/12/27 11:37:57;;;;;;;42.63;23.35;;;;;;;3.38;100.00;100883.84;4983529;28;20034;-68
2021/12/27 11:40:49;;;;;;;45.78;25.15;;;;;;;2.99;100.00;100892.75;4983072;28;20426;-71
2021/12/27 11:43:53;;;;;;;45.72;23.98;;;;;;;3.29;100.00;100886.31;4996517;28;20033;-69
2021/12/27 11:46:48;;;;;;;42.80;23.10;;;;;;;3.01;100.00;100866.03;4997121;28;20058;-70
2021/12/27 11:49:47;;;;;;;41.42;23.23;;;;;;;3.38;100.00;100854.50;4996342;28;20355;-69
2021/12/27 11:52:35;;;;;;;44.45;24.30;;;;;;;3.01;100.00;100840.16;4997500;28;20096;-69
2021/12/27 11:55:22;;;;;;;48.20;23.52;;;;;;;2.71;100.00;100839.72;4983155;28;20113;-69
2021/12/27 11:58:28;;;;;;;45.33;25.17;;;;;;;2.89;100.00;100834.81;4997116;28;20113;-69
2021/12/27 12:01:20;;;;;;;45.45;24.90;;;;;;;3.13;100.00;100835.16;4997122;28;20387;-68
2021/12/27 12:04:05;;;;;;;46.70;25.35;;;;;;;2.92;100.00;100828.81;4996304;28;20447;-70
2021/12/27 12:06:51;;;;;;;49.35;25.35;;;;;;;2.58;100.00;100819.66;4982499;28;20367;-69
2021/12/27 12:09:46;;;;;;;53.83;25.58;;;;;;;2.65;100.00;100821.50;4997569;28;20042;-68
2021/12/27 12:12:33;;;;;;;51.13;26.48;;;;;;;2.87;100.00;100817.53;4996571;28;20042;-68
2021/12/27 12:15:27;;;;;;;60.50;25.33;;;;;;;2.99;100.00;100804.75;4997004;28;20027;-69
2021/12/27 12:18:16;;;;;;;49.00;26.02;;;;;;;3.28;100.00;100791.38;4996933;28;20490;-68
2021/12/27 12:21:03;;;;;;;48.83;26.65;;;;;;;3.04;100.00;100788.44;4996976;28;20034;-68
2021/12/27 12:23:55;;;;;;;45.40;24.38;;;;;;;2.93;100.00;100795.19;4997710;28;20034;-69
2021/12/27 12:26:52;;;;;;;53.90;25.92;;;;;;;2.78;100.00;100788.94;4995953;28;20038;-67
2021/12/27 12:29:41;;;;;;;59.75;24.08;;;;;;;2.49;100.00;100785.03;4996828;28;20451;-68
2021/12/27 12:32:27;;;;;;;52.53;23.98;;;;;;;2.34;100.00;100774.44;4995953;28;20035;-69
2021/12/27 12:35:30;;;;;;;55.45;26.98;;;;;;;2.38;100.00;100771.94;4996989;28;20022;-68
2021/12/27 12:38:31;;;;;;;67.70;27.52;;;;;;;2.07;100.00;100771.41;4996121;28;20060;-69
2021/12/27 12:41:20;;;;;;;58.97;26.65;;;;;;;2.16;100.00;100768.97;4996974;28;20498;-68
2021/12/27 12:44:06;;;;;;;68.20;28.42;;;;;;;2.34;100.00;100754.66;4997116;28;20058;-69